createdAt,value
2022-07-29T00:00:47.405Z,20.93
2022-07-29T00:01:47.399Z,21.00
2022-07-29T00:02:47.443Z,21.00
2022-07-29T00:03:47.485Z,20.90
2022-07-29T00:04:47.347Z,20.89
2022-07-29T00:05:47.330Z,20.95
2022-07-29T00:06:47.319Z,20.97
2022-07-29T00:07:47.309Z,20.98
2022-07-29T00:08:47.284Z,20.95
2022-07-29T00:09:52.119Z,20.95
2022-07-29T00:10:47.264Z,20.95
2022-07-29T00:11:47.246Z,20.93
2022-07-29T00:12:47.230Z,21.00
2022-07-29T00:13:50.868Z,21.00
2022-07-29T00:14:47.201Z,20.95
2022-07-29T00:15:47.184Z,20.93
2022-07-29T00:16:47.302Z,20.95
2022-07-29T00:17:47.161Z,20.93
2022-07-29T00:18:47.137Z,20.93
2022-07-29T00:19:47.121Z,20.97
2022-07-29T00:20:47.113Z,20.88
2022-07-29T00:21:47.094Z,20.90
2022-07-29T00:22:47.083Z,20.89
2022-07-29T00:23:47.066Z,20.89
2022-07-29T00:24:47.048Z,20.83
2022-07-29T00:25:47.033Z,20.77
2022-07-29T00:26:47.017Z,20.77
2022-07-29T00:27:47.004Z,20.80
2022-07-29T00:28:46.987Z,20.75
2022-07-29T00:29:46.977Z,20.75
2022-07-29T00:30:47.022Z,20.74
2022-07-29T00:31:47.091Z,20.74
2022-07-29T00:32:46.928Z,20.64
2022-07-29T00:33:46.914Z,20.70
2022-07-29T00:34:46.898Z,20.68
2022-07-29T00:35:46.886Z,20.71
2022-07-29T00:36:46.870Z,20.64
2022-07-29T00:37:46.852Z,20.55
2022-07-29T00:38:46.834Z,20.48
2022-07-29T00:39:46.820Z,20.55
2022-07-29T00:40:46.806Z,20.53
2022-07-29T00:41:46.792Z,20.49
2022-07-29T00:42:46.774Z,20.50
2022-07-29T00:43:46.762Z,20.56
2022-07-29T00:44:46.751Z,20.58
2022-07-29T00:45:46.738Z,20.60
2022-07-29T00:46:46.757Z,20.58
2022-07-29T00:47:46.706Z,20.52
2022-07-29T00:48:46.759Z,20.55
2022-07-29T00:49:46.674Z,20.55
2022-07-29T00:50:46.656Z,20.49
2022-07-29T00:51:46.640Z,20.37
2022-07-29T00:52:46.621Z,20.32
2022-07-29T00:53:46.616Z,20.37
2022-07-29T00:54:46.602Z,20.30
2022-07-29T00:55:46.585Z,20.33
2022-07-29T00:56:46.568Z,20.36
2022-07-29T00:57:46.554Z,20.30
2022-07-29T00:58:46.537Z,20.26
2022-07-29T00:59:46.520Z,20.37
2022-07-29T01:00:46.563Z,20.36
2022-07-29T01:01:46.608Z,20.26
2022-07-29T01:02:46.471Z,20.29
2022-07-29T01:03:46.459Z,20.23
2022-07-29T01:04:46.446Z,20.23
2022-07-29T01:05:49.642Z,20.22
2022-07-29T01:06:46.413Z,20.29
2022-07-29T01:07:46.395Z,20.33
2022-07-29T01:08:46.377Z,20.30
2022-07-29T01:09:47.237Z,20.30
2022-07-29T01:10:46.349Z,20.39
2022-07-29T01:11:46.335Z,20.37
2022-07-29T01:12:46.317Z,20.34
2022-07-29T01:13:46.305Z,20.36
2022-07-29T01:14:46.288Z,20.42
2022-07-29T01:15:49.298Z,20.36
2022-07-29T01:16:46.344Z,20.37
2022-07-29T01:17:53.267Z,20.36
2022-07-29T01:18:46.234Z,20.34
2022-07-29T01:19:46.219Z,20.42
2022-07-29T01:20:46.201Z,20.26
2022-07-29T01:21:46.191Z,20.37
2022-07-29T01:22:46.166Z,20.26
2022-07-29T01:23:46.148Z,20.22
2022-07-29T01:24:46.132Z,20.37
2022-07-29T01:25:46.121Z,20.36
2022-07-29T01:26:46.107Z,20.37
2022-07-29T01:27:46.091Z,20.39
2022-07-29T01:28:46.078Z,20.39
2022-07-29T01:29:46.062Z,20.39
2022-07-29T01:30:46.047Z,20.41
2022-07-29T01:32:00.686Z,20.23
2022-07-29T01:32:46.015Z,20.19
2022-07-29T01:33:46.003Z,20.23
2022-07-29T01:34:45.985Z,20.30
2022-07-29T01:35:45.973Z,20.15
2022-07-29T01:36:45.947Z,20.17
2022-07-29T01:37:45.933Z,20.18
2022-07-29T01:38:45.921Z,20.23
2022-07-29T01:39:45.905Z,20.12
2022-07-29T01:40:45.886Z,20.19
2022-07-29T01:41:45.875Z,20.17
2022-07-29T01:42:45.860Z,20.19
2022-07-29T01:43:45.846Z,20.15
2022-07-29T01:44:45.831Z,20.14
2022-07-29T01:45:45.810Z,20.19
2022-07-29T01:46:45.813Z,20.17
2022-07-29T01:47:45.780Z,20.15
2022-07-29T01:48:45.838Z,20.14
2022-07-29T01:49:45.755Z,20.22
2022-07-29T01:50:45.733Z,20.19
2022-07-29T01:51:45.717Z,20.22
2022-07-29T01:52:45.704Z,20.17
2022-07-29T01:53:45.686Z,20.23
2022-07-29T01:54:46.653Z,20.15
2022-07-29T01:55:45.657Z,20.18
2022-07-29T01:56:45.640Z,20.22
2022-07-29T01:57:45.626Z,20.17
2022-07-29T01:58:45.613Z,20.15
2022-07-29T01:59:45.595Z,20.18
2022-07-29T02:00:45.581Z,20.19
2022-07-29T02:01:45.625Z,20.12
2022-07-29T02:02:45.553Z,20.14
2022-07-29T02:03:45.540Z,20.12
2022-07-29T02:04:45.554Z,20.14
2022-07-29T02:05:45.502Z,20.17
2022-07-29T02:06:45.486Z,20.11
2022-07-29T02:07:45.469Z,20.14
2022-07-29T02:08:45.453Z,20.11
2022-07-29T02:09:45.444Z,20.05
2022-07-29T02:10:45.428Z,20.09
2022-07-29T02:11:45.414Z,20.17
2022-07-29T02:12:50.893Z,20.12
2022-07-29T02:13:45.378Z,20.09
2022-07-29T02:14:45.366Z,20.07
2022-07-29T02:15:45.449Z,20.11
2022-07-29T02:16:45.333Z,20.17
2022-07-29T02:17:45.316Z,20.07
2022-07-29T02:18:45.300Z,20.15
2022-07-29T02:19:45.289Z,20.14
2022-07-29T02:20:45.268Z,20.15
2022-07-29T02:21:45.255Z,20.12
2022-07-29T02:22:45.235Z,20.17
2022-07-29T02:23:51.027Z,20.11
2022-07-29T02:24:45.208Z,20.14
2022-07-29T02:25:45.196Z,20.14
2022-07-29T02:26:45.174Z,20.14
2022-07-29T02:27:45.165Z,20.07
2022-07-29T02:28:45.147Z,20.15
2022-07-29T02:29:45.137Z,20.05
2022-07-29T02:30:45.165Z,20.09
2022-07-29T02:31:45.117Z,20.11
2022-07-29T02:32:45.081Z,20.07
2022-07-29T02:33:45.067Z,20.07
2022-07-29T02:34:45.049Z,20.05
2022-07-29T02:35:45.037Z,19.94
2022-07-29T02:36:45.020Z,19.92
2022-07-29T02:37:45.006Z,19.90
2022-07-29T02:38:44.992Z,19.96
2022-07-29T02:39:44.984Z,19.94
2022-07-29T02:40:44.960Z,19.94
2022-07-29T02:41:44.948Z,19.94
2022-07-29T02:42:44.928Z,19.96
2022-07-29T02:43:44.914Z,19.86
2022-07-29T02:44:44.898Z,19.92
2022-07-29T02:45:44.879Z,19.97
2022-07-29T02:46:44.934Z,19.92
2022-07-29T02:47:44.854Z,19.89
2022-07-29T02:48:44.884Z,19.94
2022-07-29T02:49:44.822Z,19.92
2022-07-29T02:50:44.803Z,19.93
2022-07-29T02:51:45.172Z,19.94
2022-07-29T02:52:44.771Z,19.94
2022-07-29T02:53:44.755Z,19.86
2022-07-29T02:54:44.737Z,19.89
2022-07-29T02:55:44.726Z,19.87
2022-07-29T02:56:44.709Z,19.86
2022-07-29T02:57:54.521Z,19.89
2022-07-29T02:58:44.677Z,19.84
2022-07-29T02:59:44.662Z,19.89
2022-07-29T03:00:44.645Z,19.82
2022-07-29T03:01:44.778Z,19.86
2022-07-29T03:02:44.611Z,19.81
2022-07-29T03:03:44.603Z,19.78
2022-07-29T03:04:44.630Z,19.82
2022-07-29T03:05:44.570Z,19.75
2022-07-29T03:06:44.549Z,19.79
2022-07-29T03:07:44.539Z,19.72
2022-07-29T03:08:44.523Z,19.79
2022-07-29T03:09:44.507Z,19.71
2022-07-29T03:10:44.485Z,19.77
2022-07-29T03:11:49.791Z,19.64
2022-07-29T03:12:44.456Z,19.74
2022-07-29T03:13:44.442Z,19.70
2022-07-29T03:14:44.425Z,19.63
2022-07-29T03:15:44.442Z,19.63
2022-07-29T03:16:44.446Z,19.67
2022-07-29T03:17:44.384Z,19.63
2022-07-29T03:18:44.362Z,19.67
2022-07-29T03:19:44.350Z,19.62
2022-07-29T03:20:44.333Z,19.63
2022-07-29T03:21:44.311Z,19.62
2022-07-29T03:22:44.321Z,19.70
2022-07-29T03:23:44.281Z,19.67
2022-07-29T03:24:44.265Z,19.67
2022-07-29T03:25:44.251Z,19.81
2022-07-29T03:26:44.235Z,19.72
2022-07-29T03:27:44.223Z,19.71
2022-07-29T03:28:44.207Z,19.77
2022-07-29T03:29:49.897Z,19.82
2022-07-29T03:30:44.595Z,19.82
2022-07-29T03:31:44.158Z,19.81
2022-07-29T03:32:44.140Z,19.71
2022-07-29T03:33:44.127Z,19.72
2022-07-29T03:34:44.119Z,19.70
2022-07-29T03:35:44.093Z,19.68
2022-07-29T03:36:44.080Z,19.63
2022-07-29T03:37:44.058Z,19.62
2022-07-29T03:38:44.043Z,19.59
2022-07-29T03:39:44.028Z,19.53
2022-07-29T03:40:44.011Z,19.50
2022-07-29T03:41:43.998Z,19.52
2022-07-29T03:42:44.029Z,19.53
2022-07-29T03:43:49.615Z,19.53
2022-07-29T03:44:43.947Z,19.50
2022-07-29T03:45:43.936Z,19.52
2022-07-29T03:46:43.983Z,19.53
2022-07-29T03:47:51.611Z,19.45
2022-07-29T03:48:43.942Z,19.52
2022-07-29T03:49:43.878Z,19.52
2022-07-29T03:50:43.860Z,19.42
2022-07-29T03:51:43.842Z,19.47
2022-07-29T03:52:45.387Z,19.50
2022-07-29T03:53:43.810Z,19.47
2022-07-29T03:54:43.795Z,19.52
2022-07-29T03:55:43.777Z,19.59
2022-07-29T03:56:43.762Z,19.59
2022-07-29T03:57:43.744Z,19.62
2022-07-29T03:58:43.728Z,19.67
2022-07-29T03:59:43.714Z,19.60
2022-07-29T04:00:43.701Z,19.63
2022-07-29T04:01:43.741Z,19.60
2022-07-29T04:02:43.667Z,19.57
2022-07-29T04:03:43.687Z,19.67
2022-07-29T04:04:43.632Z,19.68
2022-07-29T04:05:43.617Z,19.67
2022-07-29T04:06:43.612Z,19.64
2022-07-29T04:07:43.586Z,19.70
2022-07-29T04:08:43.575Z,19.70
2022-07-29T04:09:43.558Z,19.75
2022-07-29T04:10:43.536Z,19.77
2022-07-29T04:11:57.080Z,19.78
2022-07-29T04:12:43.505Z,19.72
2022-07-29T04:13:43.490Z,19.72
2022-07-29T04:14:43.475Z,19.71
2022-07-29T04:15:43.561Z,19.64
2022-07-29T04:16:43.445Z,19.70
2022-07-29T04:17:43.430Z,19.64
2022-07-29T04:18:43.410Z,19.68
2022-07-29T04:19:43.397Z,19.64
2022-07-29T04:20:43.466Z,19.63
2022-07-29T04:21:43.362Z,19.64
2022-07-29T04:22:43.348Z,19.56
2022-07-29T04:23:45.884Z,19.62
2022-07-29T04:24:44.531Z,19.67
2022-07-29T04:25:43.304Z,19.68
2022-07-29T04:26:43.282Z,19.62
2022-07-29T04:27:43.275Z,19.71
2022-07-29T04:28:43.254Z,19.59
2022-07-29T04:29:56.983Z,19.67
2022-07-29T04:30:43.259Z,19.64
2022-07-29T04:31:43.377Z,19.64
2022-07-29T04:32:43.193Z,19.50
2022-07-29T04:33:43.176Z,19.67
2022-07-29T04:34:43.160Z,19.52
2022-07-29T04:35:49.994Z,19.49
2022-07-29T04:36:43.131Z,19.53
2022-07-29T04:37:43.122Z,19.53
2022-07-29T04:38:43.097Z,19.50
2022-07-29T04:39:43.077Z,19.49
2022-07-29T04:40:43.073Z,19.62
2022-07-29T04:41:43.051Z,19.59
2022-07-29T04:42:46.746Z,19.63
2022-07-29T04:43:43.016Z,19.62
2022-07-29T04:44:43.350Z,19.77
2022-07-29T04:45:43.009Z,19.72
2022-07-29T04:46:43.052Z,19.81
2022-07-29T04:47:42.956Z,19.82
2022-07-29T04:48:42.997Z,19.79
2022-07-29T04:49:42.921Z,19.90
2022-07-29T04:50:42.907Z,19.81
2022-07-29T04:51:42.894Z,19.90
2022-07-29T04:52:42.875Z,19.94
2022-07-29T04:53:42.862Z,19.90
2022-07-29T04:54:42.841Z,19.93
2022-07-29T04:55:42.828Z,19.93
2022-07-29T04:56:42.811Z,19.87
2022-07-29T04:57:42.800Z,19.92
2022-07-29T04:58:42.778Z,19.89
2022-07-29T04:59:42.763Z,19.84
2022-07-29T05:00:42.746Z,19.94
2022-07-29T05:01:42.848Z,19.89
2022-07-29T05:02:42.818Z,19.93
2022-07-29T05:03:42.706Z,19.90
2022-07-29T05:04:42.689Z,19.93
2022-07-29T05:05:42.673Z,19.89
2022-07-29T05:06:42.659Z,19.90
2022-07-29T05:07:42.640Z,19.89
2022-07-29T05:08:42.622Z,19.90
2022-07-29T05:09:42.617Z,19.90
2022-07-29T05:10:42.590Z,19.89
2022-07-29T05:11:42.581Z,19.92
2022-07-29T05:12:42.562Z,19.93
2022-07-29T05:13:45.723Z,19.99
2022-07-29T05:14:42.526Z,19.94
2022-07-29T05:15:42.577Z,19.92
2022-07-29T05:16:42.497Z,19.94
2022-07-29T05:17:42.482Z,19.92
2022-07-29T05:18:42.465Z,19.93
2022-07-29T05:19:42.452Z,19.96
2022-07-29T05:20:42.436Z,19.93
2022-07-29T05:21:42.444Z,19.90
2022-07-29T05:22:42.408Z,19.99
2022-07-29T05:23:42.395Z,19.90
2022-07-29T05:24:42.371Z,19.93
2022-07-29T05:25:44.063Z,19.93
2022-07-29T05:26:42.340Z,19.97
2022-07-29T05:27:42.328Z,19.89
2022-07-29T05:28:42.313Z,19.96
2022-07-29T05:29:44.241Z,20.05
2022-07-29T05:30:42.342Z,20.07
2022-07-29T05:31:42.270Z,20.15
2022-07-29T05:32:42.251Z,20.17
2022-07-29T05:33:42.236Z,20.15
2022-07-29T05:34:50.256Z,20.18
2022-07-29T05:35:42.200Z,20.19
2022-07-29T05:36:42.187Z,20.26
2022-07-29T05:37:42.176Z,20.27
2022-07-29T05:38:42.157Z,20.25
2022-07-29T05:39:48.871Z,20.19
2022-07-29T05:40:42.132Z,20.23
2022-07-29T05:41:42.116Z,20.27
2022-07-29T05:42:42.091Z,20.26
2022-07-29T05:43:42.080Z,20.27
2022-07-29T05:44:42.065Z,20.26
2022-07-29T05:45:49.963Z,20.27
2022-07-29T05:46:42.074Z,20.26
2022-07-29T05:47:42.020Z,20.27
2022-07-29T05:48:42.058Z,20.25
2022-07-29T05:49:41.988Z,20.30
2022-07-29T05:50:44.188Z,20.30
2022-07-29T05:51:41.955Z,20.33
2022-07-29T05:52:41.940Z,20.27
2022-07-29T05:53:41.930Z,20.33
2022-07-29T05:54:41.910Z,20.49
2022-07-29T05:55:41.900Z,20.44
2022-07-29T05:56:41.883Z,20.49
2022-07-29T05:57:41.873Z,20.58
2022-07-29T05:58:41.848Z,20.61
2022-07-29T05:59:41.841Z,20.64
2022-07-29T06:00:41.819Z,20.73
2022-07-29T06:01:41.852Z,20.67
2022-07-29T06:02:41.788Z,20.71
2022-07-29T06:03:41.775Z,20.71
2022-07-29T06:04:41.785Z,20.68
2022-07-29T06:05:41.744Z,20.63
2022-07-29T06:06:41.728Z,20.75
2022-07-29T06:07:41.716Z,20.79
2022-07-29T06:08:41.696Z,20.71
2022-07-29T06:09:41.688Z,20.73
2022-07-29T06:10:41.666Z,20.71
2022-07-29T06:11:41.653Z,20.79
2022-07-29T06:12:41.642Z,20.79
2022-07-29T06:13:41.632Z,20.74
2022-07-29T06:14:41.612Z,20.77
2022-07-29T06:15:41.693Z,20.86
2022-07-29T06:16:41.624Z,20.88
2022-07-29T06:18:00.050Z,20.92
2022-07-29T06:18:41.552Z,20.90
2022-07-29T06:19:41.559Z,20.93
2022-07-29T06:20:41.516Z,20.93
2022-07-29T06:21:41.946Z,20.95
2022-07-29T06:22:41.493Z,20.98
2022-07-29T06:23:41.476Z,21.08
2022-07-29T06:24:41.460Z,21.16
2022-07-29T06:25:41.448Z,21.13
2022-07-29T06:26:41.426Z,21.07
2022-07-29T06:27:41.416Z,21.08
2022-07-29T06:28:41.398Z,21.11
2022-07-29T06:29:41.387Z,21.20
2022-07-29T06:30:41.418Z,21.18
2022-07-29T06:31:41.357Z,21.13
2022-07-29T06:32:43.240Z,21.11
2022-07-29T06:33:41.329Z,21.08
2022-07-29T06:34:41.313Z,21.08
2022-07-29T06:35:44.718Z,21.14
2022-07-29T06:36:41.281Z,21.18
2022-07-29T06:37:41.266Z,21.23
2022-07-29T06:38:44.860Z,21.20
2022-07-29T06:39:41.242Z,21.16
2022-07-29T06:40:41.222Z,21.13
2022-07-29T06:41:41.206Z,21.18
2022-07-29T06:42:41.195Z,21.18
2022-07-29T06:43:52.641Z,21.14
2022-07-29T06:44:41.162Z,21.11
2022-07-29T06:45:41.174Z,21.07
2022-07-29T06:46:41.155Z,21.04
2022-07-29T06:47:41.132Z,21.07
2022-07-29T06:48:41.208Z,21.05
2022-07-29T06:49:41.097Z,21.05
2022-07-29T06:50:41.074Z,21.05
2022-07-29T06:51:41.062Z,21.07
2022-07-29T06:52:41.045Z,21.04
2022-07-29T06:53:59.895Z,20.93
2022-07-29T06:54:41.014Z,21.03
2022-07-29T06:55:41.004Z,20.93
2022-07-29T06:56:40.985Z,20.95
2022-07-29T06:57:40.979Z,20.93
2022-07-29T06:58:40.955Z,20.97
2022-07-29T06:59:40.947Z,20.90
2022-07-29T07:00:40.930Z,20.92
2022-07-29T07:01:41.054Z,20.90
2022-07-29T07:02:40.984Z,20.97
2022-07-29T07:03:40.887Z,20.90
2022-07-29T07:04:40.874Z,20.97
2022-07-29T07:05:40.858Z,20.97
2022-07-29T07:06:40.847Z,20.90
2022-07-29T07:07:40.828Z,20.92
2022-07-29T07:08:40.820Z,20.95
2022-07-29T07:09:41.050Z,21.00
2022-07-29T07:10:40.800Z,21.07
2022-07-29T07:11:40.767Z,21.07
2022-07-29T07:12:40.756Z,21.14
2022-07-29T07:13:40.745Z,21.16
2022-07-29T07:14:40.724Z,21.22
2022-07-29T07:15:40.719Z,21.37
2022-07-29T07:16:40.755Z,21.48
2022-07-29T07:17:40.686Z,21.50
2022-07-29T07:18:40.669Z,21.59
2022-07-29T07:19:40.663Z,21.65
2022-07-29T07:20:40.634Z,21.75
2022-07-29T07:21:40.632Z,21.73
2022-07-29T07:22:40.618Z,21.93
2022-07-29T07:23:40.597Z,22.00
2022-07-29T07:24:40.582Z,22.16
2022-07-29T07:25:40.575Z,22.23
2022-07-29T07:26:40.554Z,22.36
2022-07-29T07:27:40.536Z,22.46
2022-07-29T07:28:40.528Z,22.38
2022-07-29T07:29:40.514Z,22.48
2022-07-29T07:30:40.499Z,22.52
2022-07-29T07:31:40.549Z,22.51
2022-07-29T07:32:40.477Z,22.52
2022-07-29T07:33:40.460Z,22.49
2022-07-29T07:34:40.452Z,22.52
2022-07-29T07:35:40.450Z,22.46
2022-07-29T07:36:40.416Z,22.41
2022-07-29T07:37:40.406Z,22.33
2022-07-29T07:38:40.392Z,22.28
2022-07-29T07:39:40.387Z,22.25
2022-07-29T07:40:40.367Z,22.22
2022-07-29T07:41:40.352Z,22.19
2022-07-29T07:42:40.390Z,22.13
2022-07-29T07:43:40.328Z,22.16
2022-07-29T07:45:03.765Z,22.07
2022-07-29T07:45:40.355Z,21.90
2022-07-29T07:46:40.286Z,21.91
2022-07-29T07:47:40.268Z,21.78
2022-07-29T07:48:40.311Z,21.74
2022-07-29T07:49:40.241Z,21.78
2022-07-29T07:50:40.231Z,21.75
2022-07-29T07:51:40.215Z,21.82
2022-07-29T07:52:40.201Z,21.81
2022-07-29T07:53:40.187Z,21.80
2022-07-29T07:54:40.174Z,21.78
2022-07-29T07:56:08.255Z,21.75
2022-07-29T07:56:40.155Z,21.77
2022-07-29T07:57:40.131Z,21.88
2022-07-29T07:58:40.241Z,21.96
2022-07-29T07:59:40.104Z,21.96
2022-07-29T08:00:40.112Z,21.93
2022-07-29T08:01:47.629Z,22.00
2022-07-29T08:02:40.172Z,21.91
2022-07-29T08:03:40.092Z,21.91
2022-07-29T08:04:40.036Z,21.93
2022-07-29T08:05:40.027Z,22.01
2022-07-29T08:06:40.022Z,21.98
2022-07-29T08:07:40.002Z,22.03
2022-07-29T08:08:39.985Z,22.03
2022-07-29T08:09:39.965Z,22.12
2022-07-29T08:10:39.956Z,22.16
2022-07-29T08:11:39.938Z,22.15
2022-07-29T08:12:39.931Z,22.15
2022-07-29T08:13:39.911Z,22.12
2022-07-29T08:14:39.896Z,22.18
2022-07-29T08:15:39.884Z,22.16
2022-07-29T08:16:39.904Z,22.12
2022-07-29T08:17:39.857Z,22.11
2022-07-29T08:18:39.856Z,22.15
2022-07-29T08:19:39.827Z,22.16
2022-07-29T08:20:39.813Z,22.11
2022-07-29T08:21:39.804Z,22.13
2022-07-29T08:22:39.792Z,22.22
2022-07-29T08:23:45.952Z,22.30
2022-07-29T08:24:39.759Z,22.33
2022-07-29T08:25:39.750Z,22.43
2022-07-29T08:26:39.733Z,22.51
2022-07-29T08:27:44.091Z,22.43
2022-07-29T08:28:39.715Z,22.48
2022-07-29T08:29:39.690Z,22.51
2022-07-29T08:30:39.684Z,22.53
2022-07-29T08:31:39.761Z,22.40
2022-07-29T08:32:56.121Z,22.58
2022-07-29T08:33:39.647Z,22.51
2022-07-29T08:34:39.624Z,22.59
2022-07-29T08:35:39.622Z,22.61
2022-07-29T08:36:39.600Z,22.62
2022-07-29T08:37:39.582Z,22.66
2022-07-29T08:38:39.566Z,22.53
2022-07-29T08:39:39.555Z,22.51
2022-07-29T08:40:39.546Z,22.55
2022-07-29T08:41:39.531Z,22.52
2022-07-29T08:42:39.519Z,22.48
2022-07-29T08:43:39.501Z,22.38
2022-07-29T08:44:39.492Z,22.36
2022-07-29T08:45:39.509Z,22.31
2022-07-29T08:46:39.471Z,22.31
2022-07-29T08:47:39.449Z,22.31
2022-07-29T08:48:39.493Z,22.30
2022-07-29T08:49:39.423Z,22.34
2022-07-29T08:50:39.407Z,22.30
2022-07-29T08:51:49.167Z,22.33
2022-07-29T08:52:39.445Z,22.37
2022-07-29T08:53:39.371Z,22.46
2022-07-29T08:54:39.361Z,22.46
2022-07-29T08:55:39.340Z,22.48
2022-07-29T08:56:39.330Z,22.46
2022-07-29T08:57:39.314Z,22.51
2022-07-29T08:58:39.300Z,22.56
2022-07-29T08:59:39.284Z,22.48
2022-07-29T09:00:39.315Z,22.48
2022-07-29T09:01:42.351Z,22.55
2022-07-29T09:02:39.246Z,22.53
2022-07-29T09:03:39.271Z,22.48
2022-07-29T09:04:39.226Z,22.51
2022-07-29T09:05:41.992Z,22.48
2022-07-29T09:06:39.189Z,22.53
2022-07-29T09:07:39.176Z,22.48
2022-07-29T09:08:39.161Z,22.48
2022-07-29T09:09:39.151Z,22.51
2022-07-29T09:10:39.136Z,22.55
2022-07-29T09:11:39.130Z,22.59
2022-07-29T09:12:39.114Z,22.61
2022-07-29T09:13:39.097Z,22.55
2022-07-29T09:14:39.088Z,22.58
2022-07-29T09:15:39.067Z,22.61
2022-07-29T09:16:52.797Z,22.55
2022-07-29T09:17:39.060Z,22.51
2022-07-29T09:18:39.028Z,22.52
2022-07-29T09:19:39.011Z,22.44
2022-07-29T09:20:39.001Z,22.58
2022-07-29T09:21:38.990Z,22.55
2022-07-29T09:22:42.026Z,22.61
2022-07-29T09:23:38.962Z,22.48
2022-07-29T09:24:38.950Z,22.49
2022-07-29T09:25:38.937Z,22.51
2022-07-29T09:26:38.921Z,22.52
2022-07-29T09:27:38.905Z,22.48
2022-07-29T09:28:38.893Z,22.49
2022-07-29T09:29:38.881Z,22.43
2022-07-29T09:30:38.868Z,22.44
2022-07-29T09:31:38.908Z,22.38
2022-07-29T09:32:38.871Z,22.52
2022-07-29T09:33:38.822Z,22.46
2022-07-29T09:34:38.826Z,22.49
2022-07-29T09:35:38.800Z,22.55
2022-07-29T09:36:38.786Z,22.53
2022-07-29T09:37:38.778Z,22.51
2022-07-29T09:38:38.763Z,22.38
2022-07-29T09:39:38.742Z,22.55
2022-07-29T09:40:38.727Z,22.58
2022-07-29T09:41:38.717Z,22.56
2022-07-29T09:42:38.702Z,22.59
2022-07-29T09:43:38.687Z,22.76
2022-07-29T09:44:38.680Z,22.71
2022-07-29T09:45:38.663Z,22.91
2022-07-29T09:46:38.733Z,22.77
2022-07-29T09:47:38.632Z,22.92
2022-07-29T09:48:38.669Z,22.98
2022-07-29T09:49:38.606Z,22.96
2022-07-29T09:50:38.605Z,23.06
2022-07-29T09:51:38.971Z,23.10
2022-07-29T09:52:38.567Z,23.10
2022-07-29T09:53:38.559Z,23.04
2022-07-29T09:54:38.537Z,23.11
2022-07-29T09:55:38.524Z,23.10
2022-07-29T09:56:38.514Z,23.07
2022-07-29T09:57:38.497Z,23.15
2022-07-29T09:58:38.495Z,23.15
2022-07-29T09:59:50.346Z,23.11
2022-07-29T10:00:38.534Z,23.15
2022-07-29T10:01:38.455Z,23.37
2022-07-29T10:02:38.442Z,23.54
2022-07-29T10:03:38.516Z,23.63
2022-07-29T10:04:38.410Z,23.78
2022-07-29T10:05:38.396Z,23.73
2022-07-29T10:06:38.382Z,23.78
2022-07-29T10:07:38.372Z,23.86
2022-07-29T10:08:38.361Z,24.03
2022-07-29T10:09:38.345Z,24.07
2022-07-29T10:10:38.331Z,24.76
2022-07-29T10:11:49.602Z,25.31
2022-07-29T10:12:38.310Z,26.39
2022-07-29T10:13:38.301Z,27.00
2022-07-29T10:14:38.290Z,27.80
2022-07-29T10:15:38.267Z,27.61
2022-07-29T10:16:38.334Z,27.75
2022-07-29T10:17:38.247Z,28.28
2022-07-29T10:18:38.244Z,28.50
2022-07-29T10:19:38.226Z,28.16
2022-07-29T10:20:38.209Z,27.80
2022-07-29T10:21:38.202Z,27.37
2022-07-29T10:22:53.032Z,27.30
2022-07-29T10:23:46.762Z,27.17
2022-07-29T10:24:38.224Z,26.79
2022-07-29T10:25:38.163Z,26.48
2022-07-29T10:26:38.144Z,26.36
2022-07-29T10:27:38.129Z,26.16
2022-07-29T10:28:38.125Z,26.08
2022-07-29T10:29:38.110Z,25.85
2022-07-29T10:30:38.101Z,25.64
2022-07-29T10:31:38.214Z,25.49
2022-07-29T10:32:38.084Z,25.22
2022-07-29T10:33:38.087Z,25.01
2022-07-29T10:34:38.075Z,24.78
2022-07-29T10:35:38.044Z,24.43
2022-07-29T10:36:38.032Z,24.41
2022-07-29T10:37:38.015Z,24.34
2022-07-29T10:38:38.564Z,23.97
2022-07-29T10:39:44.548Z,23.84
2022-07-29T10:40:37.983Z,23.81
2022-07-29T10:41:44.300Z,23.60
2022-07-29T10:42:37.961Z,23.48
2022-07-29T10:43:37.957Z,23.48
2022-07-29T10:44:37.943Z,23.37
2022-07-29T10:45:37.932Z,23.34
2022-07-29T10:46:38.014Z,23.21
2022-07-29T10:47:37.907Z,23.15
2022-07-29T10:48:37.935Z,23.04
2022-07-29T10:49:37.892Z,23.06
2022-07-29T10:50:37.869Z,23.06
2022-07-29T10:51:37.843Z,23.07
2022-07-29T10:52:38.101Z,23.08
2022-07-29T10:53:37.821Z,23.11
2022-07-29T10:54:37.808Z,23.11
2022-07-29T10:55:37.867Z,23.03
2022-07-29T10:56:37.794Z,23.03
2022-07-29T10:57:52.719Z,23.01
2022-07-29T10:58:37.758Z,22.93
2022-07-29T10:59:37.743Z,22.92
2022-07-29T11:00:37.731Z,22.91
2022-07-29T11:01:39.374Z,22.76
2022-07-29T11:02:41.568Z,22.86
2022-07-29T11:03:37.750Z,22.74
2022-07-29T11:04:37.681Z,22.67
2022-07-29T11:05:40.734Z,22.61
2022-07-29T11:06:37.648Z,22.48
2022-07-29T11:07:46.067Z,22.52
2022-07-29T11:08:37.623Z,22.34
2022-07-29T11:09:38.477Z,22.33
2022-07-29T11:10:37.596Z,22.36
2022-07-29T11:11:37.581Z,22.36
2022-07-29T11:12:37.567Z,22.23
2022-07-29T11:13:41.322Z,22.28
2022-07-29T11:14:37.539Z,22.27
2022-07-29T11:15:37.534Z,22.22
2022-07-29T11:16:37.513Z,22.30
2022-07-29T11:17:52.075Z,22.30
2022-07-29T11:18:37.493Z,22.38
2022-07-29T11:19:40.265Z,22.33
2022-07-29T11:20:37.927Z,22.31
2022-07-29T11:21:53.466Z,22.19
2022-07-29T11:22:37.438Z,22.27
2022-07-29T11:23:37.596Z,22.23
2022-07-29T11:24:37.407Z,22.18
2022-07-29T11:25:50.866Z,22.11
2022-07-29T11:26:37.381Z,22.18
2022-07-29T11:27:37.365Z,22.11
2022-07-29T11:28:37.350Z,22.13
2022-07-29T11:29:40.046Z,21.97
2022-07-29T11:30:37.323Z,21.94
2022-07-29T11:31:37.308Z,21.93
2022-07-29T11:32:37.301Z,21.96
2022-07-29T11:33:54.885Z,21.91
2022-07-29T11:34:37.267Z,21.93
2022-07-29T11:35:39.910Z,22.00
2022-07-29T11:36:37.241Z,21.88
2022-07-29T11:37:45.729Z,21.94
2022-07-29T11:38:37.215Z,21.88
2022-07-29T11:39:37.698Z,21.90
2022-07-29T11:40:37.182Z,21.96
2022-07-29T11:41:37.164Z,21.88
2022-07-29T11:42:37.164Z,21.88
2022-07-29T11:43:37.144Z,21.90
2022-07-29T11:44:37.128Z,21.73
2022-07-29T11:45:42.496Z,21.81
2022-07-29T11:46:37.103Z,21.75
2022-07-29T11:47:38.238Z,21.63
2022-07-29T11:48:37.122Z,21.63
2022-07-29T11:49:37.106Z,21.56
2022-07-29T11:50:37.042Z,21.56
2022-07-29T11:51:37.025Z,21.53
2022-07-29T11:52:37.015Z,21.58
2022-07-29T11:53:36.997Z,21.59
2022-07-29T11:54:38.689Z,21.60
2022-07-29T11:55:36.971Z,21.59
2022-07-29T11:56:36.960Z,21.56
2022-07-29T11:57:37.171Z,21.55
2022-07-29T11:58:36.926Z,21.51
2022-07-29T11:59:36.916Z,21.47
2022-07-29T12:00:36.905Z,21.51
2022-07-29T12:01:36.881Z,21.55
2022-07-29T12:02:38.308Z,21.45
2022-07-29T12:03:37.309Z,21.47
2022-07-29T12:04:36.848Z,21.37
2022-07-29T12:05:37.174Z,21.37
2022-07-29T12:06:36.812Z,21.40
2022-07-29T12:07:36.800Z,21.37
2022-07-29T12:08:36.785Z,21.26
2022-07-29T12:09:40.322Z,21.26
2022-07-29T12:10:36.753Z,21.19
2022-07-29T12:11:36.744Z,21.16
2022-07-29T12:12:36.727Z,21.16
2022-07-29T12:13:37.441Z,21.11
2022-07-29T12:14:36.694Z,21.13
2022-07-29T12:15:46.159Z,21.03
2022-07-29T12:16:36.706Z,21.05
2022-07-29T12:17:36.726Z,20.97
2022-07-29T12:18:36.636Z,20.90
2022-07-29T12:19:36.626Z,20.92
2022-07-29T12:20:36.608Z,20.89
2022-07-29T12:21:36.592Z,20.92
2022-07-29T12:22:36.576Z,20.89
2022-07-29T12:23:36.566Z,20.93
2022-07-29T12:24:36.553Z,21.04
2022-07-29T12:25:36.534Z,21.01
2022-07-29T12:26:36.520Z,21.01
2022-07-29T12:27:36.505Z,21.05
2022-07-29T12:28:36.492Z,21.05
2022-07-29T12:29:36.482Z,20.93
2022-07-29T12:30:36.467Z,21.05
2022-07-29T12:31:41.931Z,21.03
2022-07-29T12:32:36.472Z,21.03
2022-07-29T12:33:36.414Z,21.04
2022-07-29T12:34:36.402Z,21.19
2022-07-29T12:35:36.387Z,21.10
2022-07-29T12:36:36.375Z,21.10
2022-07-29T12:37:41.150Z,21.08
2022-07-29T12:38:36.348Z,21.13
2022-07-29T12:39:36.339Z,21.18
2022-07-29T12:40:36.316Z,21.11
2022-07-29T12:41:36.298Z,21.14
2022-07-29T12:42:36.284Z,21.14
2022-07-29T12:43:36.268Z,21.23
2022-07-29T12:44:36.259Z,21.19
2022-07-29T12:45:36.242Z,21.30
2022-07-29T12:46:36.311Z,21.34
2022-07-29T12:47:36.211Z,21.30
2022-07-29T12:48:36.200Z,21.34
2022-07-29T12:49:38.304Z,21.37
2022-07-29T12:50:36.170Z,21.32
2022-07-29T12:51:36.158Z,21.40
2022-07-29T12:52:36.146Z,21.53